EST,Max TemperatureF,Mean TemperatureF,Min TemperatureF,Max Dew PointF,MeanDew PointF,Min DewpointF,Max Humidity, Mean Humidity, Min Humidity, Max Sea Level PressureIn, Mean Sea Level PressureIn, Min Sea Level PressureIn, Max VisibilityMiles, Mean VisibilityMiles, Min VisibilityMiles, Max Wind SpeedMPH, Mean Wind SpeedMPH, Max Gust SpeedMPH,PrecipitationIn, CloudCover, Events, WindDirDegrees
2013-1-1,22,16,9,14,10,5,87,73,55,30.07,30.00,29.94,10,9,2,23,9,30,0.00,7,Snow,300
2013-1-2,25,22,19,21,17,6,88,79,57,30.06,30.01,29.92,10,8,2,18,10,23,0.00,7,Snow,207
2013-1-3,29,26,23,24,19,13,89,78,65,30.02,29.93,29.85,10,9,2,26,11,39,0.00,7,Snow,251
2013-1-4,32,30,27,26,22,18,84,73,61,30.04,29.84,29.75,10,9,2,29,21,47,0.00,7,Snow,259
2013-1-5,32,30,27,27,21,19,83,69,60,30.15,30.02,29.80,10,10,7,14,8,21,0.00,6,,138
2013-1-6,32,28,24,29,23,18,91,79,67,30.21,29.94,29.76,10,8,2,14,6,13,0.00,8,Snow,336
2013-1-7,38,31,24,29,23,16,77,69,54,30.21,29.99,29.81,10,10,10,30,12,45,0.00,4,,208
2013-1-8,37,34,32,31,29,27,87,81,73,30.10,30.02,29.88,10,10,7,18,10,30,0.00,1,,213
2013-1-9,38,35,32,32,26,21,81,71,58,30.36,29.94,29.73,10,10,7,26,16,39,0.00,7,,239
2013-1-10,38,32,27,30,25,23,85,70,55,30.49,30.37,30.11,10,10,10,16,8,24,0.00,1,,165
2013-1-11,42,38,33,42,35,26,97,92,69,30.10,29.77,29.62,10,4,0,17,10,28,0.44,8,Fog-Rain-Snow,145
2013-1-12,49,41,33,43,36,28,97,85,70,29.92,29.70,29.57,10,9,2,26,12,45,0.00,3,,214
2013-1-13,33,29,25,28,26,23,93,85,76,29.90,29.86,29.81,10,8,1,10,6,,0.00,8,Snow,321
2013-1-14,25,22,19,23,14,7,91,72,49,30.29,30.19,29.90,10,8,1,21,14,29,0.00,7,Snow,259
2013-1-15,27,21,15,21,15,6,83,72,57,30.31,30.19,29.99,10,8,1,20,14,31,0.00,6,Snow,227
2013-1-16,30,24,16,28,20,8,92,77,62,29.97,29.73,29.55,10,8,0,24,15,46,0.00,7,Snow,245
2013-1-17,16,11,6,8,3,-1,85,69,52,30.23,30.15,29.95,10,8,2,22,11,32,0.00,6,Snow,319
2013-1-18,25,18,12,23,11,2,93,78,54,30.26,30.04,29.71,10,7,0,17,12,25,0.01,7,Snow,212
2013-1-19,35,29,23,33,25,20,97,91,80,29.78,29.60,29.33,10,6,1,29,5,44,0.12,8,Snow,240
2013-1-20,24,16,8,21,5,0,86,72,61,30.08,29.88,29.38,10,9,1,28,18,38,0.00,6,Snow,298
2013-1-21,10,5,0,3,-1,-8,78,67,59,30.02,29.91,29.84,10,9,2,24,14,34,0.00,7,Snow,283
2013-1-22,5,0,-4,-2,-7,-12,81,73,60,30.15,30.10,29.96,10,6,1,20,9,26,0.00,7,Snow,333
2013-1-23,12,8,4,6,2,-3,83,73,58,30.21,30.06,29.97,10,6,1,20,13,29,0.00,7,Snow,286
2013-1-24,10,3,-4,4,-3,-10,82,75,69,30.59,30.48,30.23,10,10,5,16,10,23,0.00,4,,327
2013-1-25,18,14,9,14,8,-2,85,77,60,30.41,30.10,29.94,10,7,2,12,8,20,0.00,8,Snow,155
2013-1-26,22,16,9,15,13,7,90,83,71,30.35,30.21,30.00,10,9,2,9,4,,0.00,3,Snow,88
2013-1-27,29,24,18,25,18,13,92,79,68,30.36,30.25,30.06,10,9,2,14,9,23,0.00,7,Snow,159
2013-1-28,32,30,27,30,28,25,94,92,88,30.05,29.90,29.81,10,6,1,14,6,18,0.07,8,Snow,87
2013-1-29,37,34,30,36,32,28,97,94,88,29.96,29.64,29.44,10,5,0,16,7,26,0.10,8,Fog-Snow,112
2013-1-30,33,24,15,33,28,12,99,95,86,29.44,29.25,29.09,10,4,0,22,10,28,0.19,8,Snow,360
2013-1-31,15,12,8,11,7,4,87,81,73,29.78,29.50,29.16,10,7,1,20,13,26,0.00,8,Snow,312